Time;durP1;ratioP1;P1;durP2;ratioP2;P2;SDS_P1;SDS_P2;PMS_P1;PMS_P2;Temp;Humidity;BMP_temperature;BMP_pressure;BME280_temperature;BME280_humidity;BME280_pressure;Samples;Min_cycle;Max_cycle;Signal;HPM_P1;HPM_P2
2021/11/08 00:00:35;;;;;;;10.30;1.42;;;;;;;5.71;87.77;100070.38;5027272;28;20155;-60
2021/11/08 00:03:27;;;;;;;11.35;1.60;;;;;;;5.81;87.38;100070.53;5033200;28;20065;-62
2021/11/08 00:06:14;;;;;;;9.82;2.05;;;;;;;5.82;87.52;100062.41;5032825;28;20119;-61
2021/11/08 00:08:59;;;;;;;11.00;1.40;;;;;;;5.98;87.33;100064.75;5033812;28;20052;-62
2021/11/08 00:11:45;;;;;;;7.45;1.30;;;;;;;5.87;89.42;100076.22;5031951;28;20069;-62
2021/11/08 00:14:30;;;;;;;17.60;2.25;;;;;;;5.79;89.50;100072.44;5032636;28;20188;-62
2021/11/08 00:17:32;;;;;;;13.77;2.23;;;;;;;5.72;90.70;100073.88;5024832;28;20060;-63
2021/11/08 00:20:24;;;;;;;8.65;1.35;;;;;;;5.74;90.88;100074.59;5034779;28;20064;-61
2021/11/08 00:23:16;;;;;;;11.60;1.98;;;;;;;5.70;91.32;100067.84;5034690;28;20522;-61
2021/11/08 00:26:04;;;;;;;14.52;1.92;;;;;;;5.84;90.13;100068.47;5029331;28;20171;-62
2021/11/08 00:28:50;;;;;;;12.65;1.90;;;;;;;5.69;91.11;100066.97;5032222;28;20248;-63
2021/11/08 00:31:35;;;;;;;6.87;1.43;;;;;;;5.69;91.13;100071.47;5029824;28;20065;-63
2021/11/08 00:34:20;;;;;;;18.13;2.40;;;;;;;5.57;91.99;100082.06;5032092;28;20419;-60
2021/11/08 00:37:06;;;;;;;16.00;1.85;;;;;;;5.67;91.12;100095.50;5032252;28;20056;-62
2021/11/08 00:39:52;;;;;;;9.88;2.38;;;;;;;5.66;90.87;100093.81;5031420;28;20057;-60
2021/11/08 00:42:37;;;;;;;13.73;1.83;;;;;;;5.64;91.54;100100.22;5032572;28;20107;-61
2021/11/08 00:45:23;;;;;;;9.07;2.13;;;;;;;5.73;91.25;100094.22;5030816;28;20522;-62
2021/11/08 00:48:09;;;;;;;;;;;;;;;5.89;90.03;100089.41;5031560;28;20128;-61
2021/11/08 00:50:54;;;;;;;7.10;2.17;;;;;;;5.90;89.72;100088.47;5031480;28;20333;-62
2021/11/08 00:53:40;;;;;;;9.93;1.97;;;;;;;5.68;91.00;100091.03;5032160;28;20056;-61
2021/11/08 00:56:26;;;;;;;9.23;1.63;;;;;;;5.92;89.40;100099.00;5034266;28;20684;-62
2021/11/08 00:59:13;;;;;;;11.98;1.88;;;;;;;5.82;89.63;100091.72;5032421;28;20068;-62
2021/11/08 01:01:58;;;;;;;7.32;1.65;;;;;;;5.81;90.10;100106.00;5031092;28;20418;-62
2021/11/08 01:04:43;;;;;;;12.23;1.70;;;;;;;5.83;89.19;100109.38;5026991;28;20072;-61
2021/11/08 01:07:28;;;;;;;11.48;1.58;;;;;;;5.80;89.60;100098.97;5031466;28;20645;-62
2021/11/08 01:10:20;;;;;;;15.45;1.95;;;;;;;6.03;88.64;100110.53;5029902;28;20057;-64
2021/11/08 01:13:05;;;;;;;16.48;2.50;;;;;;;5.88;89.47;100109.00;5021574;28;20629;-62
2021/11/08 01:15:50;;;;;;;21.38;2.70;;;;;;;5.88;89.97;100109.00;5030328;28;20187;-62
2021/11/08 01:18:36;;;;;;;10.25;1.80;;;;;;;5.88;90.60;100111.69;5031341;28;20064;-62
2021/11/08 01:21:21;;;;;;;16.15;1.98;;;;;;;5.90;90.50;100112.44;5031939;28;20130;-63
2021/11/08 01:24:06;;;;;;;13.77;2.05;;;;;;;6.07;89.96;100124.47;5031383;28;20053;-63
2021/11/08 01:26:52;;;;;;;14.55;2.45;;;;;;;5.80;91.60;100125.59;5031158;28;20061;-61
2021/11/08 01:29:38;;;;;;;;;;;;;;;5.76;92.44;100133.91;5032547;28;20056;-58
2021/11/08 01:32:23;;;;;;;14.93;1.55;;;;;;;5.82;92.29;100131.66;5030583;28;19928;-60
2021/11/08 01:35:09;;;;;;;11.07;2.47;;;;;;;5.72;93.04;100125.31;5030258;28;20056;-63
2021/11/08 01:38:02;;;;;;;6.50;1.88;;;;;;;5.71;93.40;100138.75;5030726;28;20487;-60
2021/11/08 01:40:48;;;;;;;13.93;2.42;;;;;;;5.79;92.93;100137.19;5030719;28;20056;-59
2021/11/08 01:43:35;;;;;;;11.05;2.10;;;;;;;5.73;94.12;100150.13;5031087;28;20072;-59
2021/11/08 01:46:22;;;;;;;14.48;2.42;;;;;;;5.74;94.08;100149.16;5025514;28;20183;-60
2021/11/08 01:49:07;;;;;;;20.77;2.00;;;;;;;5.66;95.64;100151.56;5031976;28;20052;-62
2021/11/08 01:51:52;;;;;;;17.98;3.40;;;;;;;5.59;94.97;100140.53;5032837;28;20056;-61
2021/11/08 01:54:38;;;;;;;14.73;2.35;;;;;;;5.67;95.38;100156.75;5032024;28;20123;-60
2021/11/08 01:57:23;;;;;;;9.48;1.80;;;;;;;5.56;96.32;100154.03;5025733;28;20053;-60
2021/11/08 02:00:13;;;;;;;16.88;1.85;;;;;;;5.72;95.90;100156.44;5028752;28;20063;-62
2021/11/08 02:02:58;;;;;;;16.65;1.92;;;;;;;5.50;96.88;100152.72;5030081;28;20510;-62
2021/11/08 02:05:44;;;;;;;16.83;2.30;;;;;;;5.58;97.21;100152.16;5031122;28;20183;-62
2021/11/08 02:08:29;;;;;;;14.02;2.95;;;;;;;5.50;97.14;100147.38;5032875;28;20313;-61
2021/11/08 02:11:15;;;;;;;7.93;1.60;;;;;;;5.43;97.91;100164.75;5027294;28;20450;-62
2021/11/08 02:13:59;;;;;;;15.20;2.65;;;;;;;5.47;97.52;100163.59;5030733;28;20565;-61
2021/11/08 02:16:46;;;;;;;16.75;2.42;;;;;;;5.64;97.05;100161.47;5028530;28;20146;-62
2021/11/08 02:19:31;;;;;;;12.82;2.30;;;;;;;5.48;97.40;100159.13;5030331;28;20307;-62
2021/11/08 02:22:17;;;;;;;13.55;2.15;;;;;;;5.52;97.77;100166.75;5026798;28;20112;-61
2021/11/08 02:25:02;;;;;;;14.85;2.80;;;;;;;5.49;97.65;100160.81;5023790;28;20519;-62
2021/11/08 02:27:49;;;;;;;5.25;1.67;;;;;;;5.54;97.02;100180.78;5030123;28;20079;-61
2021/11/08 02:30:36;;;;;;;;;;;;;;;5.65;97.36;100171.16;5030217;28;20083;-61
2021/11/08 02:33:21;;;;;;;15.23;2.78;;;;;;;5.55;97.13;100185.16;5030253;28;19947;-61
2021/11/08 02:36:06;;;;;;;16.23;2.35;;;;;;;5.49;97.92;100176.78;5030170;28;20063;-62
2021/11/08 02:38:55;;;;;;;13.80;2.23;;;;;;;5.52;98.12;100180.06;5054758;22;20052;-62
2021/11/08 02:41:40;;;;;;;8.60;1.92;;;;;;;5.60;97.90;100173.31;5028168;28;20060;-62
2021/11/08 02:44:25;;;;;;;14.97;2.50;;;;;;;5.71;97.30;100173.38;5029946;28;20071;-61
2021/11/08 02:47:11;;;;;;;18.55;2.38;;;;;;;5.54;97.90;100174.63;5030897;28;20123;-62
2021/11/08 02:49:58;;;;;;;;;;;;;;;5.45;98.72;100168.19;5030163;28;20534;-63
2021/11/08 02:52:44;;;;;;;18.90;2.75;;;;;;;5.46;97.99;100182.34;5030505;28;19928;-63
2021/11/08 02:55:31;;;;;;;13.25;2.13;;;;;;;5.61;97.70;100178.53;5030098;28;20061;-62
2021/11/08 02:58:15;;;;;;;14.60;2.53;;;;;;;5.60;97.49;100178.66;5030295;28;20072;-63
2021/11/08 03:01:02;;;;;;;11.63;1.77;;;;;;;5.56;98.28;100188.66;5030194;28;20119;-62
2021/11/08 03:03:51;;;;;;;14.43;2.75;;;;;;;5.62;97.97;100198.03;5030126;28;20137;-64
2021/11/08 03:06:36;;;;;;;22.25;3.15;;;;;;;5.65;98.13;100198.63;5028292;28;20057;-62
2021/11/08 03:09:25;;;;;;;13.23;2.97;;;;;;;5.68;97.95;100210.88;5035381;28;20048;-62
2021/11/08 03:12:14;;;;;;;15.18;2.40;;;;;;;5.69;98.36;100207.25;5029761;28;20134;-63
2021/11/08 03:15:05;;;;;;;9.45;1.85;;;;;;;5.56;98.97;100212.63;5031085;28;20057;-62
2021/11/08 03:17:51;;;;;;;15.75;2.88;;;;;;;5.52;99.42;100206.69;5029719;28;20266;-63
2021/11/08 03:20:37;;;;;;;16.60;2.40;;;;;;;5.57;100.00;100211.69;5030158;28;20517;-63
2021/11/08 03:23:23;;;;;;;19.90;2.38;;;;;;;5.56;99.75;100210.84;5030461;28;20139;-63
2021/11/08 03:26:14;;;;;;;18.57;2.80;;;;;;;5.44;100.00;100211.69;5029748;28;20048;-61
2021/11/08 03:29:00;;;;;;;12.38;2.70;;;;;;;5.36;100.00;100224.75;5028480;28;20060;-64
2021/11/08 03:31:49;;;;;;;15.65;2.35;;;;;;;5.36;100.00;100216.75;5028307;28;20534;-61
2021/11/08 03:34:37;;;;;;;19.40;3.30;;;;;;;5.33;100.00;100222.31;5030173;28;20179;-63
2021/11/08 03:37:24;;;;;;;15.18;2.35;;;;;;;5.54;100.00;100223.38;5032845;28;20052;-63
2021/11/08 03:40:12;;;;;;;18.08;3.10;;;;;;;5.39;100.00;100232.50;5033471;28;20084;-64
2021/11/08 03:42:58;;;;;;;9.65;2.45;;;;;;;5.56;100.00;100233.91;5033464;28;20053;-61
2021/11/08 03:45:46;;;;;;;8.82;2.45;;;;;;;5.39;100.00;100245.81;5027359;28;20052;-61
2021/11/08 03:48:32;;;;;;;19.17;3.25;;;;;;;5.41;100.00;100240.38;5033848;28;20056;-64
2021/11/08 03:51:17;;;;;;;15.07;2.90;;;;;;;5.47;100.00;100253.25;5033733;28;20100;-63
2021/11/08 03:54:03;;;;;;;13.02;3.08;;;;;;;5.47;100.00;100256.75;5034835;28;20057;-61
2021/11/08 03:56:48;;;;;;;;;;;;;;;5.45;100.00;100255.19;5025884;28;20076;-63
2021/11/08 03:59:33;;;;;;;17.05;2.65;;;;;;;5.50;100.00;100261.84;5015005;28;19929;-61
2021/11/08 04:02:20;;;;;;;25.53;4.07;;;;;;;5.39;100.00;100261.78;5030613;28;20525;-62
2021/11/08 04:05:08;;;;;;;12.65;2.35;;;;;;;5.35;100.00;100257.66;5032353;28;20064;-62
2021/11/08 04:07:53;;;;;;;14.73;3.30;;;;;;;5.43;100.00;100263.25;5028695;28;20060;-62
2021/11/08 04:10:39;;;;;;;14.15;2.88;;;;;;;5.54;100.00;100273.97;5029189;28;20061;-63
2021/11/08 04:13:29;;;;;;;15.68;2.33;;;;;;;5.29;100.00;100266.91;5024758;28;20607;-61
2021/11/08 04:16:17;;;;;;;18.17;3.17;;;;;;;5.34;100.00;100277.25;5028578;28;20081;-63
2021/11/08 04:19:05;;;;;;;22.48;2.90;;;;;;;5.32;100.00;100286.28;5033419;28;20589;-61
2021/11/08 04:21:51;;;;;;;11.88;2.90;;;;;;;5.38;100.00;100281.38;5023755;28;20191;-63
2021/11/08 04:24:36;;;;;;;11.02;3.40;;;;;;;5.21;100.00;100297.72;5025673;28;20057;-62
2021/11/08 04:27:21;;;;;;;14.80;2.93;;;;;;;5.35;100.00;100292.25;5026723;28;20595;-63
2021/11/08 04:30:08;;;;;;;23.00;3.40;;;;;;;5.31;100.00;100296.06;5028321;28;20191;-62
2021/11/08 04:33:12;;;;;;;18.77;4.80;;;;;;;5.44;100.00;100296.03;5022270;28;20682;-61
2021/11/08 04:36:13;;;;;;;12.60;2.80;;;;;;;5.59;100.00;100305.59;5014161;28;20052;-64
2021/11/08 04:39:10;;;;;;;18.95;3.35;;;;;;;5.58;100.00;100302.09;5017219;28;20051;-62
2021/11/08 04:41:59;;;;;;;;;;;;;;;5.69;100.00;100303.13;5033252;28;20061;-63
2021/11/08 04:45:17;;;;;;;9.00;2.22;;;;;;;5.48;100.00;100308.19;5032340;28;20401;-63
2021/11/08 04:48:15;;;;;;;21.73;3.72;;;;;;;5.42;100.00;100313.94;5033304;28;20057;-64
2021/11/08 04:51:05;;;;;;;14.43;3.13;;;;;;;5.64;100.00;100318.56;5030535;28;20155;-61
2021/11/08 04:53:56;;;;;;;9.77;3.10;;;;;;;5.78;99.73;100310.44;5030487;28;20191;-61
2021/11/08 04:57:12;;;;;;;14.68;3.22;;;;;;;5.49;100.00;100310.72;5025718;28;20057;-62
2021/11/08 05:21:43;;;;;;;13.93;3.40;;;;;;;5.84;96.54;100348.13;5032385;28;20130;-61
2021/11/08 05:24:44;;;;;;;13.25;3.00;;;;;;;5.95;96.14;100338.53;5030911;28;20135;-64
2021/11/08 05:27:53;;;;;;;14.13;3.15;;;;;;;5.84;96.28;100348.13;5031550;28;20060;-64
2021/11/08 05:30:39;;;;;;;12.30;2.80;;;;;;;6.03;95.04;100352.13;5031914;28;20450;-62
2021/11/08 05:33:24;;;;;;;15.02;3.00;;;;;;;5.85;95.50;100351.66;5030046;28;20123;-61
2021/11/08 05:36:09;;;;;;;14.40;3.13;;;;;;;5.83;95.94;100365.06;5030003;28;20595;-62
2021/11/08 05:38:55;;;;;;;8.75;2.30;;;;;;;5.85;96.08;100363.16;5021095;28;20443;-62
2021/11/08 05:41:41;;;;;;;6.20;2.10;;;;;;;5.88;96.39;100367.41;5030825;28;20056;-62
2021/11/08 05:44:27;;;;;;;8.85;2.38;;;;;;;5.89;95.80;100379.75;5030825;28;20091;-64
2021/11/08 05:47:12;;;;;;;7.97;2.63;;;;;;;6.00;94.98;100379.00;5029904;28;20063;-61
2021/11/08 05:49:57;;;;;;;26.00;3.00;;;;;;;6.00;95.31;100387.84;5030745;28;20060;-63
2021/11/08 05:52:43;;;;;;;12.00;2.40;;;;;;;6.03;94.79;100394.75;5030154;28;20060;-62
2021/11/08 05:55:35;;;;;;;18.10;3.13;;;;;;;6.05;94.82;100391.03;5030725;28;20049;-62
2021/11/08 05:58:41;;;;;;;13.77;4.00;;;;;;;6.15;94.09;100397.38;5031105;28;20788;-63
2021/11/08 06:12:47;;;;;;;10.75;2.90;;;;;;;5.99;94.63;100399.47;5031140;28;20065;-63
2021/11/08 06:50:41;;;;;;;9.50;2.20;;;;;;;6.18;92.79;100481.63;5023862;28;20060;-63
2021/11/08 06:53:28;;;;;;;14.88;3.25;;;;;;;6.30;92.42;100475.41;5030422;28;20072;-64
2021/11/08 06:56:16;;;;;;;32.70;20.70;;;;;;;6.32;91.63;100481.47;5032137;28;20057;-63
2021/11/08 06:59:04;;;;;;;15.70;9.38;;;;;;;6.30;91.70;100483.41;5030236;28;20550;-64
2021/11/08 07:01:48;;;;;;;11.13;2.83;;;;;;;6.09;93.14;100490.25;5028986;28;20064;-64
2021/11/08 07:04:34;;;;;;;17.52;10.20;;;;;;;6.30;92.04;100502.06;5029657;28;20534;-63
2021/11/08 07:07:20;;;;;;;14.40;2.60;;;;;;;6.42;91.67;100505.66;5028805;28;20052;-66
2021/11/08 07:10:06;;;;;;;16.03;9.00;;;;;;;6.46;91.16;100517.78;5027098;28;20052;-63
2021/11/08 07:12:52;;;;;;;13.18;2.78;;;;;;;6.45;91.18;100513.41;5029985;28;20449;-62
2021/11/08 07:15:40;;;;;;;;;;;;;;;6.48;90.75;100510.50;5029986;28;20056;-63
2021/11/08 07:18:25;;;;;;;7.93;2.47;;;;;;;6.64;90.76;100508.44;5026712;28;19974;-62
2021/11/08 07:21:10;;;;;;;7.97;2.75;;;;;;;6.48;90.98;100509.66;5017110;28;20052;-62
2021/11/08 07:23:55;;;;;;;11.77;2.88;;;;;;;6.35;91.38;100507.03;5025483;28;20511;-64
2021/11/08 07:26:40;;;;;;;19.58;2.80;;;;;;;6.40;91.47;100510.25;5028482;28;20056;-62
2021/11/08 07:29:27;;;;;;;13.05;2.17;;;;;;;6.51;90.01;100514.75;5026921;28;20121;-63
2021/11/08 07:32:13;;;;;;;11.63;1.88;;;;;;;6.44;90.23;100517.03;5027820;28;20060;-62
2021/11/08 07:35:00;;;;;;;9.90;1.75;;;;;;;6.46;90.27;100520.44;5025860;28;20057;-62
2021/11/08 07:37:45;;;;;;;13.13;1.90;;;;;;;6.53;90.08;100526.19;5026730;28;20407;-61
2021/11/08 07:40:30;;;;;;;7.90;1.83;;;;;;;6.56;89.77;100526.81;5027869;28;20120;-62
2021/11/08 07:43:15;;;;;;;13.27;2.83;;;;;;;6.60;90.01;100532.78;5028296;28;20072;-62
2021/11/08 07:46:01;;;;;;;15.52;2.28;;;;;;;6.57;89.35;100523.19;5023700;28;20048;-61
2021/11/08 07:48:48;;;;;;;11.27;2.30;;;;;;;6.72;89.71;100522.06;5027820;28;20224;-62
2021/11/08 07:51:34;;;;;;;8.55;1.52;;;;;;;6.62;89.04;100541.50;5029447;28;20095;-61
2021/11/08 07:54:19;;;;;;;10.67;1.97;;;;;;;6.50;90.61;100540.59;5027734;28;20044;-63
2021/11/08 07:57:05;;;;;;;13.27;2.53;;;;;;;6.51;90.49;100539.66;5028948;28;20324;-61
2021/11/08 07:59:51;;;;;;;;;;;;;;;6.40;90.83;100550.22;5029009;28;20061;-61
2021/11/08 08:02:36;;;;;;;8.65;1.98;;;;;;;6.48;90.26;100549.66;5028449;28;19928;-63
2021/11/08 08:05:22;;;;;;;15.02;3.83;;;;;;;6.26;90.68;100545.00;5023312;28;20048;-61
2021/11/08 08:08:07;;;;;;;;;;;;;;;6.31;90.64;100554.41;5029446;28;20527;-62
2021/11/08 08:10:53;;;;;;;11.35;3.25;;;;;;;6.27;90.99;100549.38;5029823;28;20006;-64
2021/11/08 08:13:38;;;;;;;8.45;3.25;;;;;;;6.32;91.87;100550.78;5026229;28;20053;-62
2021/11/08 08:16:23;;;;;;;10.80;3.17;;;;;;;6.27;91.41;100558.22;5029279;28;20056;-60
2021/11/08 08:19:08;;;;;;;11.75;2.50;;;;;;;6.31;90.35;100554.41;5022644;28;20103;-62
2021/11/08 08:21:55;;;;;;;14.10;2.70;;;;;;;6.61;89.38;100554.00;5029138;28;20064;-62
2021/11/08 08:24:40;;;;;;;8.55;1.90;;;;;;;6.67;89.30;100550.91;5029442;28;20057;-62
2021/11/08 08:27:25;;;;;;;14.38;2.22;;;;;;;6.82;89.17;100546.25;5030947;28;20118;-62
2021/11/08 08:30:11;;;;;;;8.68;2.60;;;;;;;7.07;87.59;100549.75;5032154;28;20529;-62
2021/11/08 08:32:56;;;;;;;7.50;1.95;;;;;;;7.23;86.83;100547.66;5033494;28;20057;-62
2021/11/08 08:35:41;;;;;;;14.70;2.35;;;;;;;7.26;86.93;100558.97;5032224;28;20514;-63
2021/11/08 08:38:28;;;;;;;11.13;2.00;;;;;;;7.32;86.31;100554.97;5031227;28;20060;-64
2021/11/08 08:41:13;;;;;;;15.32;2.42;;;;;;;7.40;86.49;100557.91;5022266;22;20053;-80
2021/11/08 08:43:59;;;;;;;19.27;2.17;;;;;;;7.54;86.01;100567.53;5005766;28;20053;-80
2021/11/08 08:46:46;;;;;;;14.48;2.28;;;;;;;7.61;84.74;100563.44;5012004;28;20060;-77
2021/11/08 08:49:32;;;;;;;9.90;1.60;;;;;;;7.71;84.62;100566.28;4991279;28;20081;-78
2021/11/08 08:52:19;;;;;;;9.82;1.75;;;;;;;8.04;83.79;100566.31;4988412;28;20652;-78
2021/11/08 08:55:07;;;;;;;12.13;1.60;;;;;;;8.32;82.20;100574.84;4991618;28;20053;-77
2021/11/08 08:57:54;;;;;;;6.70;1.52;;;;;;;8.42;80.15;100571.34;4988688;28;20534;-77
2021/11/08 09:00:41;;;;;;;7.60;1.50;;;;;;;8.49;80.16;100583.25;4985976;28;20519;-77
2021/11/08 09:03:26;;;;;;;9.50;1.63;;;;;;;8.61;80.87;100586.75;4990764;28;20061;-76
2021/11/08 09:06:11;;;;;;;12.65;1.58;;;;;;;8.73;79.56;100584.94;4989881;28;20058;-77
2021/11/08 09:08:57;;;;;;;9.80;1.52;;;;;;;8.86;79.64;100593.66;4990816;28;20212;-76
2021/11/08 09:11:43;;;;;;;9.50;2.00;;;;;;;8.85;78.40;100589.28;4989205;28;20062;-77
2021/11/08 09:14:30;;;;;;;11.68;1.67;;;;;;;8.83;78.84;100601.94;4988793;28;20311;-76
2021/11/08 09:17:16;;;;;;;7.70;1.50;;;;;;;8.92;78.61;100614.59;4992189;28;20062;-78
2021/11/08 09:20:01;;;;;;;17.17;2.78;;;;;;;8.73;78.63;100614.34;4992841;28;20065;-77
2021/11/08 09:22:49;;;;;;;14.85;1.77;;;;;;;8.96;78.33;100610.66;4989892;28;20470;-77
2021/11/08 09:25:35;;;;;;;6.55;1.92;;;;;;;8.97;76.77;100609.69;4992087;28;20065;-78
2021/11/08 09:28:22;;;;;;;7.90;1.58;;;;;;;9.07;77.14;100623.19;4986299;28;20052;-78
2021/11/08 09:31:08;;;;;;;10.95;1.83;;;;;;;8.83;77.17;100618.00;4991600;28;20189;-77
2021/11/08 09:34:02;;;;;;;13.20;2.05;;;;;;;8.89;77.71;100614.84;4988633;28;20417;-76
2021/11/08 09:36:48;;;;;;;5.65;1.13;;;;;;;8.92;77.97;100625.28;4987380;28;20072;-77
2021/11/08 09:39:34;;;;;;;11.38;1.55;;;;;;;9.09;76.97;100629.25;4981700;28;20074;-77
2021/11/08 09:42:21;;;;;;;9.05;1.55;;;;;;;9.25;76.83;100634.25;4991422;28;20511;-80
2021/11/08 09:45:09;;;;;;;10.65;3.88;;;;;;;9.21;76.24;100638.97;4988311;28;20104;-78
2021/11/08 09:47:54;;;;;;;15.13;2.22;;;;;;;9.15;75.57;100633.28;4987000;28;20061;-77
2021/11/08 09:50:42;;;;;;;26.08;7.25;;;;;;;9.27;76.22;100630.44;4990227;28;20073;-78
2021/11/08 09:53:27;;;;;;;12.90;5.13;;;;;;;9.24;75.63;100640.56;4982304;28;20101;-77
2021/11/08 09:56:14;;;;;;;16.08;1.83;;;;;;;9.20;75.86;100636.41;4990655;28;20420;-77
2021/11/08 09:59:01;;;;;;;7.75;1.50;;;;;;;9.12;76.94;100639.75;4991059;28;20138;-78
2021/11/08 10:01:51;;;;;;;7.70;1.88;;;;;;;9.07;77.19;100652.63;4992297;28;20142;-78
2021/11/08 10:04:36;;;;;;;8.73;1.70;;;;;;;9.06;76.75;100643.75;4982748;28;20547;-77
2021/11/08 10:07:21;;;;;;;14.15;1.80;;;;;;;9.05;76.45;100646.56;4993426;28;20184;-77
2021/11/08 10:10:08;;;;;;;8.30;1.40;;;;;;;9.27;75.92;100657.22;4992056;28;20053;-77
2021/11/08 10:13:04;;;;;;;13.07;2.08;;;;;;;9.37;75.31;100651.97;4981270;28;20309;-76
2021/11/08 10:15:52;;;;;;;10.38;1.63;;;;;;;9.46;75.61;100647.66;4990416;28;20530;-76
2021/11/08 10:18:42;;;;;;;5.13;1.13;;;;;;;9.86;74.08;100645.19;4989369;28;20081;-76
2021/11/08 10:21:29;;;;;;;9.98;1.50;;;;;;;10.10;74.32;100643.09;4989734;28;20065;-78
2021/11/08 10:24:21;;;;;;;4.18;1.20;;;;;;;10.04;75.75;100648.13;4974422;28;20062;-78
2021/11/08 10:27:09;;;;;;;6.40;1.27;;;;;;;9.78;74.17;100661.06;4988934;28;20112;-78
2021/11/08 10:29:54;;;;;;;8.70;1.60;;;;;;;9.76;74.05;100657.66;4990003;28;20136;-78
2021/11/08 10:32:39;;;;;;;13.57;2.10;;;;;;;9.79;73.82;100649.34;4990711;28;20184;-77
2021/11/08 10:35:35;;;;;;;5.07;1.45;;;;;;;10.00;73.67;100658.28;4990521;28;20053;-77
2021/11/08 10:38:22;;;;;;;5.67;1.60;;;;;;;10.04;72.03;100659.69;4987732;28;20050;-76
2021/11/08 10:41:18;;;;;;;10.43;1.60;;;;;;;10.18;72.41;100671.94;4989851;28;20519;-77
2021/11/08 10:44:08;;;;;;;8.38;1.63;;;;;;;10.61;71.31;100669.13;4987425;28;20196;-78
2021/11/08 10:47:02;;;;;;;10.27;1.83;;;;;;;10.90;69.64;100666.56;4990447;28;20403;-77
2021/11/08 10:49:48;;;;;;;10.10;2.03;;;;;;;11.03;68.92;100659.13;4984565;28;20060;-78
2021/11/08 10:52:34;;;;;;;10.85;2.08;;;;;;;10.63;68.40;100674.34;4988080;28;20176;-76
2021/11/08 10:55:29;;;;;;;7.78;1.20;;;;;;;10.98;68.43;100679.28;4988830;28;20053;-77
2021/11/08 10:58:15;;;;;;;7.35;1.40;;;;;;;10.95;68.47;100683.09;4988906;28;20056;-77
2021/11/08 11:01:03;;;;;;;13.48;1.67;;;;;;;10.92;69.47;100682.53;4985161;28;20095;-76
2021/11/08 11:03:50;;;;;;;12.68;2.30;;;;;;;10.78;69.19;100671.19;4987711;28;20053;-77
2021/11/08 11:06:38;;;;;;;11.52;1.58;;;;;;;10.63;70.68;100675.19;4991127;28;20682;-77
2021/11/08 11:09:26;;;;;;;5.25;1.40;;;;;;;10.45;70.34;100663.41;4984010;28;20129;-77
2021/11/08 11:12:14;;;;;;;16.17;2.55;;;;;;;10.29;71.13;100676.41;4988372;28;20058;-78
2021/11/08 11:15:01;;;;;;;8.13;1.42;;;;;;;10.32;70.32;100674.34;4986493;28;20053;-77
2021/11/08 11:17:51;;;;;;;12.25;1.88;;;;;;;10.53;70.95;100675.13;4983170;28;20548;-77
2021/11/08 11:20:37;;;;;;;7.05;1.60;;;;;;;10.13;70.66;100677.69;4988572;28;20543;-76
2021/11/08 11:23:26;;;;;;;;;;;;;;;10.42;70.69;100671.72;4990525;28;20058;-77
2021/11/08 11:26:13;;;;;;;11.38;2.45;;;;;;;10.59;70.61;100678.28;4983518;28;20466;-77
2021/11/08 11:28:59;;;;;;;9.32;1.40;;;;;;;10.51;69.38;100679.78;4988411;28;20061;-79
2021/11/08 11:31:44;;;;;;;14.15;1.70;;;;;;;10.84;69.58;100684.06;4985237;28;20056;-78
2021/11/08 11:34:30;;;;;;;5.82;1.45;;;;;;;11.05;68.95;100675.09;4989258;28;20105;-77
2021/11/08 11:37:17;;;;;;;8.23;1.73;;;;;;;10.88;69.18;100683.78;4987878;28;20367;-77
2021/11/08 11:40:06;;;;;;;8.95;2.33;;;;;;;10.82;69.54;100685.19;4982773;28;20089;-78
2021/11/08 11:42:56;;;;;;;9.00;1.88;;;;;;;11.07;69.11;100673.09;4988402;28;20456;-76
2021/11/08 11:45:47;;;;;;;7.60;1.90;;;;;;;11.07;68.10;100675.78;4988724;28;20057;-77
2021/11/08 11:48:34;;;;;;;7.78;1.73;;;;;;;11.09;69.01;100671.97;4985718;28;20053;-77
2021/11/08 11:51:22;;;;;;;8.32;2.05;;;;;;;10.68;68.70;100675.66;4988010;28;20053;-78
2021/11/08 11:54:10;;;;;;;7.95;1.45;;;;;;;10.78;69.30;100671.19;4989964;28;20232;-78
2021/11/08 11:56:55;;;;;;;7.00;1.15;;;;;;;10.86;68.98;100665.13;4986832;28;20053;-78
2021/11/08 11:59:42;;;;;;;9.40;1.92;;;;;;;10.95;69.12;100672.38;4992763;28;20048;-76
2021/11/08 12:02:27;;;;;;;7.75;1.52;;;;;;;11.15;68.29;100659.00;4988907;28;20304;-77
2021/11/08 12:05:12;;;;;;;9.63;1.90;;;;;;;11.19;67.68;100663.09;4992611;28;20100;-77
2021/11/08 12:08:01;;;;;;;11.82;1.63;;;;;;;11.17;67.10;100662.41;4985554;28;20064;-78
2021/11/08 12:10:48;;;;;;;5.05;1.42;;;;;;;11.03;67.05;100663.63;4992948;28;20057;-78
2021/11/08 12:13:40;;;;;;;7.20;1.35;;;;;;;11.02;68.36;100665.47;4989808;28;20116;-76
2021/11/08 12:16:28;;;;;;;11.15;2.05;;;;;;;10.83;67.25;100678.81;4985693;28;20053;-77
2021/11/08 12:19:18;;;;;;;8.73;1.42;;;;;;;10.86;67.60;100683.06;4991503;28;20244;-76
2021/11/08 12:22:13;;;;;;;11.57;1.85;;;;;;;10.72;69.00;100682.44;4991165;28;20337;-77
2021/11/08 12:24:59;;;;;;;8.07;2.05;;;;;;;10.40;69.54;100684.38;4992894;28;20097;-78
2021/11/08 12:27:49;;;;;;;7.70;1.40;;;;;;;10.50;70.04;100686.16;4990125;28;20128;-78
2021/11/08 12:30:36;;;;;;;11.57;1.38;;;;;;;10.27;70.41;100686.44;4984922;28;20061;-78
2021/11/08 12:33:27;;;;;;;7.40;2.20;;;;;;;10.38;69.58;100679.16;4991228;28;20588;-77
2021/11/08 12:36:19;;;;;;;6.55;1.50;;;;;;;10.37;70.32;100676.63;4985670;28;20053;-77
2021/11/08 12:39:06;;;;;;;6.25;1.17;;;;;;;10.44;70.23;100677.78;4993074;28;20185;-76
2021/11/08 12:41:59;;;;;;;10.38;1.58;;;;;;;10.40;70.63;100666.44;4989646;28;20554;-77
2021/11/08 12:44:48;;;;;;;10.38;1.73;;;;;;;10.52;70.39;100670.75;4993856;28;20162;-78
2021/11/08 12:47:33;;;;;;;9.48;1.63;;;;;;;10.45;70.58;100669.59;4992973;28;20053;-77
2021/11/08 12:50:19;;;;;;;10.98;1.70;;;;;;;10.20;72.73;100668.16;4992619;28;20077;-77
2021/11/08 12:53:05;;;;;;;8.60;1.83;;;;;;;10.14;71.57;100670.50;4984835;28;20617;-77
2021/11/08 12:55:51;;;;;;;9.18;2.00;;;;;;;10.37;71.89;100671.25;4988013;28;20185;-76
2021/11/08 12:58:39;;;;;;;5.78;1.95;;;;;;;10.23;70.20;100665.25;4991922;28;20173;-77
2021/11/08 13:01:36;;;;;;;9.07;1.45;;;;;;;10.26;70.40;100661.44;4992311;28;20136;-78
2021/11/08 13:04:31;;;;;;;11.10;2.10;;;;;;;10.35;71.53;100666.00;4991508;28;20065;-77
2021/11/08 13:07:20;;;;;;;8.80;2.13;;;;;;;10.28;70.21;100672.03;4990402;28;20519;-78
2021/11/08 13:10:18;;;;;;;5.55;1.30;;;;;;;10.14;69.62;100676.72;4988019;28;20057;-78
2021/11/08 13:13:08;;;;;;;10.80;1.88;;;;;;;10.06;70.00;100672.97;4990919;28;20102;-78
2021/11/08 13:16:02;;;;;;;4.82;1.35;;;;;;;10.04;70.58;100681.16;4991061;28;20163;-77
2021/11/08 13:18:47;;;;;;;8.48;1.55;;;;;;;9.91;70.64;100672.44;4990042;28;20140;-78
2021/11/08 13:21:34;;;;;;;8.25;1.33;;;;;;;9.94;70.77;100674.88;4985556;28;20471;-76
2021/11/08 13:24:20;;;;;;;7.38;1.90;;;;;;;10.08;71.68;100676.41;4986538;28;20061;-77
2021/11/08 13:27:08;;;;;;;6.45;1.17;;;;;;;10.11;70.60;100679.66;4989360;28;20053;-77
2021/11/08 13:29:58;;;;;;;9.93;1.45;;;;;;;9.94;71.16;100677.53;4990900;28;20061;-77
2021/11/08 13:32:43;;;;;;;5.93;1.40;;;;;;;9.83;71.06;100677.63;4983647;28;20108;-77
2021/11/08 13:35:30;;;;;;;5.55;1.65;;;;;;;9.70;73.06;100683.13;4989546;28;20467;-77
2021/11/08 13:38:24;;;;;;;;;;;;;;;9.55;71.86;100684.41;4989882;28;20066;-76
2021/11/08 13:41:15;;;;;;;10.05;1.50;;;;;;;9.58;72.72;100674.28;4988667;28;19929;-76
2021/11/08 13:44:03;;;;;;;8.02;2.00;;;;;;;9.52;72.27;100682.84;4986972;28;20052;-78
2021/11/08 13:46:52;;;;;;;6.45;1.40;;;;;;;9.50;73.61;100682.13;4990356;28;20054;-77
2021/11/08 13:49:37;;;;;;;10.98;1.40;;;;;;;9.35;72.67;100680.69;4988898;28;20120;-77
2021/11/08 13:52:22;;;;;;;9.73;2.03;;;;;;;9.43;71.97;100690.78;4991595;28;20057;-78
2021/11/08 13:55:08;;;;;;;5.57;1.45;;;;;;;9.47;71.70;100677.03;4983901;28;20096;-78
2021/11/08 13:57:54;;;;;;;8.05;1.15;;;;;;;9.41;72.16;100692.75;4986712;28;20188;-76
2021/11/08 14:00:39;;;;;;;8.38;1.50;;;;;;;9.36;72.14;100699.34;4989244;28;20057;-77
2021/11/08 14:03:25;;;;;;;6.53;1.30;;;;;;;9.31;72.64;100698.00;4987819;28;20129;-77
2021/11/08 14:06:12;;;;;;;9.85;1.40;;;;;;;9.25;72.91;100703.88;4990821;28;20052;-77
2021/11/08 14:08:58;;;;;;;7.50;1.60;;;;;;;9.14;74.25;100710.09;4981268;28;20455;-77
2021/11/08 14:11:45;;;;;;;7.82;1.38;;;;;;;9.28;73.58;100709.81;4985684;28;20050;-77